createdAt,value
2017-06-05T00:01:23.741Z,19.90
2017-06-05T00:03:51.436Z,19.90
2017-06-05T00:06:19.070Z,19.90
2017-06-05T00:08:46.371Z,19.90
2017-06-05T00:11:14.005Z,19.90
2017-06-05T00:13:41.281Z,19.90
2017-06-05T00:16:08.556Z,19.90
2017-06-05T00:18:36.511Z,19.90
2017-06-05T00:21:05.041Z,19.90
2017-06-05T00:23:32.523Z,19.90
2017-06-05T00:25:59.840Z,19.80
2017-06-05T00:28:27.273Z,19.80
2017-06-05T00:30:54.569Z,19.90
2017-06-05T00:33:22.057Z,19.90
2017-06-05T00:35:49.624Z,19.90
2017-06-05T00:38:16.916Z,19.90
2017-06-05T00:40:44.842Z,19.90
2017-06-05T00:43:12.766Z,19.90
2017-06-05T00:45:40.064Z,19.80
2017-06-05T00:48:07.835Z,19.90
2017-06-05T00:50:35.164Z,19.80
2017-06-05T00:53:02.824Z,19.80
2017-06-05T00:55:30.472Z,19.80
2017-06-05T00:57:57.941Z,19.80
2017-06-05T01:00:25.364Z,19.80
2017-06-05T01:02:53.269Z,19.80
2017-06-05T01:05:20.753Z,19.80
2017-06-05T01:07:48.161Z,19.80
2017-06-05T01:10:15.622Z,19.80
2017-06-05T01:12:42.909Z,19.80
2017-06-05T01:15:10.528Z,19.80
2017-06-05T01:17:38.000Z,19.80
2017-06-05T01:20:05.493Z,19.80
2017-06-05T01:22:33.128Z,19.80
2017-06-05T01:25:00.684Z,19.80
2017-06-05T01:27:28.229Z,19.80
2017-06-05T01:29:55.533Z,19.80
2017-06-05T01:32:22.983Z,19.80
2017-06-05T01:34:50.631Z,19.80
2017-06-05T01:37:17.937Z,19.80
2017-06-05T01:39:45.350Z,19.80
2017-06-05T01:42:13.201Z,19.80
2017-06-05T01:44:40.672Z,19.80
2017-06-05T01:47:08.113Z,19.80
2017-06-05T01:49:35.412Z,19.80
2017-06-05T01:52:02.813Z,19.80
2017-06-05T01:54:30.285Z,19.80
2017-06-05T01:56:57.696Z,19.80
2017-06-05T01:59:25.721Z,19.80
2017-06-05T02:01:53.470Z,19.80
2017-06-05T02:04:20.748Z,19.80
2017-06-05T02:06:48.170Z,19.80
2017-06-05T02:09:15.468Z,19.80
2017-06-05T02:11:42.876Z,19.80
2017-06-05T02:14:10.161Z,19.80
2017-06-05T02:16:37.605Z,19.70
2017-06-05T02:19:05.024Z,19.70
2017-06-05T02:21:32.924Z,19.70
2017-06-05T02:24:00.625Z,19.80
2017-06-05T02:26:28.001Z,19.70
2017-06-05T02:28:56.197Z,19.70
2017-06-05T02:31:23.577Z,19.70
2017-06-05T02:33:51.239Z,19.80
2017-06-05T02:36:18.865Z,19.70
2017-06-05T02:38:47.065Z,19.70
2017-06-05T02:41:14.350Z,19.70
2017-06-05T02:43:42.262Z,19.80
2017-06-05T02:46:10.331Z,19.80
2017-06-05T02:48:37.654Z,19.70
2017-06-05T02:51:05.688Z,19.70
2017-06-05T02:53:33.325Z,19.70
2017-06-05T02:56:01.332Z,19.70
2017-06-05T02:58:29.061Z,19.70
2017-06-05T03:00:56.528Z,19.70
2017-06-05T03:03:24.192Z,19.70
2017-06-05T03:05:51.833Z,19.80
2017-06-05T03:08:19.965Z,19.70
2017-06-05T03:10:47.234Z,19.70
2017-06-05T03:13:14.837Z,19.80
2017-06-05T03:15:42.544Z,19.70
2017-06-05T03:18:09.962Z,19.70
2017-06-05T03:20:37.237Z,19.70
2017-06-05T03:23:04.712Z,19.70
2017-06-05T03:25:32.344Z,19.70
2017-06-05T03:27:59.780Z,19.70
2017-06-05T03:30:27.097Z,19.70
2017-06-05T03:32:54.889Z,19.70
2017-06-05T03:35:22.121Z,19.70
2017-06-05T03:37:50.181Z,19.70
2017-06-05T03:40:17.524Z,19.70
2017-06-05T03:42:44.799Z,19.70
2017-06-05T03:45:12.587Z,19.70
2017-06-05T03:47:40.069Z,19.70
2017-06-05T03:50:07.536Z,19.70
2017-06-05T03:52:35.200Z,19.70
2017-06-05T03:55:02.469Z,19.70
2017-06-05T03:57:29.881Z,19.70
2017-06-05T03:59:57.198Z,19.70
2017-06-05T04:02:24.519Z,19.70
2017-06-05T04:04:52.077Z,19.70
2017-06-05T04:07:19.518Z,19.70
2017-06-05T04:09:46.954Z,19.70
2017-06-05T04:12:14.848Z,19.70
2017-06-05T04:14:42.146Z,19.70
2017-06-05T04:17:09.545Z,19.70
2017-06-05T04:19:37.016Z,19.70
2017-06-05T04:22:04.353Z,19.70
2017-06-05T04:24:31.684Z,19.70
2017-06-05T04:26:59.816Z,19.70
2017-06-05T04:29:27.257Z,19.70
2017-06-05T04:31:54.829Z,19.70
2017-06-05T04:34:22.113Z,19.70
2017-06-05T04:36:49.400Z,19.70
2017-06-05T04:39:16.679Z,19.70
2017-06-05T04:41:44.009Z,19.70
2017-06-05T04:44:11.307Z,19.70
2017-06-05T04:46:39.216Z,19.70
2017-06-05T04:49:06.677Z,20.00
2017-06-05T04:51:34.802Z,19.70
2017-06-05T04:54:02.605Z,19.70
2017-06-05T04:56:30.676Z,19.70
2017-06-05T04:58:58.705Z,19.70
2017-06-05T05:01:26.451Z,19.70
2017-06-05T05:03:53.872Z,19.70
2017-06-05T05:06:21.908Z,19.70
2017-06-05T05:08:49.824Z,19.70
2017-06-05T05:11:17.105Z,19.70
2017-06-05T05:13:44.409Z,19.70
2017-06-05T05:16:12.210Z,19.70
2017-06-05T05:18:39.668Z,19.70
2017-06-05T05:21:07.310Z,19.70
2017-06-05T05:23:35.212Z,19.70
2017-06-05T05:26:02.492Z,19.70
2017-06-05T05:28:30.096Z,19.70
2017-06-05T05:30:57.449Z,19.70
2017-06-05T05:33:24.726Z,19.70
2017-06-05T05:35:52.296Z,19.70
2017-06-05T05:38:19.602Z,19.70
2017-06-05T05:40:46.900Z,19.70
2017-06-05T05:43:14.625Z,19.70
2017-06-05T05:45:42.124Z,19.70
2017-06-05T05:48:09.433Z,19.70
2017-06-05T05:50:36.724Z,19.70
2017-06-05T05:53:04.044Z,19.70
2017-06-05T05:55:31.296Z,19.70
2017-06-05T05:57:58.977Z,19.70
2017-06-05T06:00:26.648Z,19.70
2017-06-05T06:02:54.152Z,19.70
2017-06-05T06:05:21.761Z,19.70
2017-06-05T06:07:49.820Z,19.70
2017-06-05T06:10:17.271Z,19.70
2017-06-05T06:12:44.525Z,19.70
2017-06-05T06:15:11.760Z,19.70
2017-06-05T06:17:39.225Z,19.70
2017-06-05T06:20:06.505Z,19.70
2017-06-05T06:22:34.196Z,19.70
2017-06-05T06:25:01.598Z,19.70
2017-06-05T06:27:28.866Z,19.70
2017-06-05T06:29:56.097Z,19.70
2017-06-05T06:32:23.716Z,19.70
2017-06-05T06:34:50.943Z,19.80
2017-06-05T06:41:11.651Z,21.70
2017-06-05T06:43:39.661Z,21.10
2017-06-05T06:46:07.735Z,20.90
2017-06-05T06:48:35.799Z,20.70
2017-06-05T06:51:03.906Z,20.60
2017-06-05T06:53:32.007Z,20.50
2017-06-05T06:55:59.825Z,20.40
2017-06-05T06:58:27.923Z,20.40
2017-06-05T07:00:56.553Z,20.30
2017-06-05T07:03:24.381Z,20.40
2017-06-05T07:05:52.163Z,20.40
2017-06-05T07:08:20.256Z,20.50
2017-06-05T07:10:48.109Z,20.50
2017-06-05T07:13:15.862Z,20.50
2017-06-05T07:15:43.942Z,20.50
2017-06-05T07:20:13.559Z,20.50
2017-06-05T07:22:41.600Z,20.60
2017-06-05T07:25:09.394Z,20.50
2017-06-05T07:27:37.187Z,20.50
2017-06-05T07:30:04.971Z,20.40
2017-06-05T07:32:32.741Z,20.40
2017-06-05T07:35:01.166Z,20.30
2017-06-05T07:37:28.939Z,20.30
2017-06-05T07:39:56.721Z,20.30
2017-06-05T07:42:24.894Z,20.30
2017-06-05T07:44:52.663Z,20.30
2017-06-05T07:47:20.727Z,20.30
2017-06-05T07:49:48.562Z,20.30
2017-06-05T07:52:16.384Z,20.20
2017-06-05T07:54:44.188Z,20.20
2017-06-05T07:57:12.026Z,20.20
2017-06-05T07:59:40.239Z,20.20
2017-06-05T08:02:08.143Z,20.20
2017-06-05T08:04:36.352Z,20.20
2017-06-05T08:07:04.442Z,20.20
2017-06-05T08:09:32.383Z,20.20
2017-06-05T08:12:00.170Z,20.20
2017-06-05T08:14:28.182Z,20.20
2017-06-05T08:16:55.980Z,20.20
2017-06-05T08:19:23.815Z,20.20
2017-06-05T08:21:51.627Z,20.40
2017-06-05T08:24:19.425Z,20.30
2017-06-05T08:26:47.424Z,20.20
2017-06-05T08:29:15.791Z,20.20
2017-06-05T08:31:43.586Z,20.20
2017-06-05T08:34:11.383Z,20.20
2017-06-05T08:36:39.211Z,20.20
2017-06-05T08:39:07.031Z,20.10
2017-06-05T08:41:35.294Z,20.20
2017-06-05T08:44:03.437Z,20.10
2017-06-05T08:46:31.191Z,20.10
2017-06-05T08:48:59.023Z,20.10
2017-06-05T08:51:26.820Z,20.10
2017-06-05T08:53:54.884Z,20.10
2017-06-05T08:56:23.019Z,20.10
2017-06-05T08:58:50.778Z,20.20
2017-06-05T09:01:18.568Z,20.20
2017-06-05T09:03:46.998Z,20.20
2017-06-05T09:06:14.834Z,20.10
2017-06-05T09:08:42.866Z,20.10
2017-06-05T09:11:11.390Z,20.10
2017-06-05T09:13:39.555Z,20.10
2017-06-05T09:16:07.411Z,20.10
2017-06-05T09:18:35.187Z,20.10
2017-06-05T09:21:07.676Z,20.10
2017-06-05T09:23:39.895Z,20.10
2017-06-05T09:26:12.397Z,20.10
2017-06-05T09:28:41.719Z,20.10
2017-06-05T09:31:09.515Z,20.10
2017-06-05T09:33:37.315Z,20.10
2017-06-05T09:36:05.123Z,20.10
2017-06-05T09:38:33.192Z,20.10
2017-06-05T09:41:01.025Z,20.10
2017-06-05T09:43:29.092Z,20.10
2017-06-05T09:45:56.949Z,20.10
2017-06-05T09:48:25.103Z,20.00
2017-06-05T09:50:53.813Z,20.00
2017-06-05T09:53:22.027Z,20.10
2017-06-05T09:55:50.363Z,20.00
2017-06-05T09:58:18.426Z,20.00
2017-06-05T10:00:46.463Z,20.00
2017-06-05T10:03:14.636Z,20.00
2017-06-05T10:05:42.467Z,20.00
2017-06-05T10:08:10.262Z,20.00
2017-06-05T10:10:38.434Z,20.00
2017-06-05T10:13:06.287Z,20.00
2017-06-05T10:15:34.063Z,20.00
2017-06-05T10:18:02.135Z,20.00
2017-06-05T10:20:30.718Z,20.00
2017-06-05T10:22:58.727Z,20.00
2017-06-05T10:25:26.837Z,20.00
2017-06-05T10:27:54.725Z,20.00
2017-06-05T10:30:22.555Z,20.00
2017-06-05T10:32:50.643Z,20.00
2017-06-05T10:35:18.482Z,20.00
2017-06-05T10:37:46.276Z,20.00
2017-06-05T10:40:14.070Z,20.00
2017-06-05T10:42:42.243Z,20.00
2017-06-05T10:45:10.355Z,20.00
2017-06-05T10:47:38.371Z,20.00
2017-06-05T10:50:06.203Z,20.00
2017-06-05T10:52:34.010Z,20.00
2017-06-05T10:55:01.864Z,20.00
2017-06-05T10:57:29.706Z,20.00
2017-06-05T10:59:57.541Z,20.00
2017-06-05T11:02:25.347Z,20.00
2017-06-05T11:04:53.159Z,20.00
2017-06-05T11:07:20.938Z,20.00
2017-06-05T11:09:48.703Z,20.00
2017-06-05T11:12:16.559Z,20.00
2017-06-05T11:14:44.623Z,20.00
2017-06-05T11:17:12.437Z,20.00
2017-06-05T11:19:40.268Z,20.00
2017-06-05T11:22:08.034Z,20.00
2017-06-05T11:24:35.808Z,20.00
2017-06-05T11:27:04.267Z,20.00
2017-06-05T11:29:32.075Z,20.00
2017-06-05T11:31:59.868Z,20.00
2017-06-05T11:34:27.711Z,20.00
2017-06-05T11:36:55.501Z,20.00
2017-06-05T11:39:24.236Z,20.00
2017-06-05T11:41:52.042Z,20.00
2017-06-05T11:44:19.819Z,20.00
2017-06-05T11:46:47.607Z,20.00
2017-06-05T11:49:15.631Z,20.00
2017-06-05T11:51:43.408Z,20.00
2017-06-05T11:54:11.207Z,20.00
2017-06-05T11:56:39.317Z,20.00
2017-06-05T11:59:07.095Z,20.00
2017-06-05T12:01:34.862Z,20.00
2017-06-05T12:04:02.932Z,20.00
2017-06-05T12:06:30.703Z,20.00
2017-06-05T12:08:58.994Z,20.00
2017-06-05T12:11:26.803Z,20.00
2017-06-05T12:13:54.607Z,20.00
2017-06-05T12:16:22.939Z,20.00
2017-06-05T12:18:50.729Z,20.00
2017-06-05T12:21:18.523Z,20.00
2017-06-05T12:23:46.626Z,20.00
2017-06-05T12:26:14.482Z,20.00
2017-06-05T12:28:42.290Z,20.00
2017-06-05T12:31:10.660Z,20.00
2017-06-05T12:33:38.494Z,20.00
2017-06-05T12:36:06.552Z,20.00
2017-06-05T12:38:34.343Z,20.00
2017-06-05T12:41:02.559Z,20.00
2017-06-05T12:43:30.358Z,20.00
2017-06-05T12:45:58.134Z,20.00
2017-06-05T12:48:26.228Z,20.00
2017-06-05T12:50:54.148Z,20.00
2017-06-05T12:53:21.983Z,20.00
2017-06-05T12:55:49.867Z,20.00
2017-06-05T12:58:17.731Z,20.00
2017-06-05T13:00:45.592Z,20.00
2017-06-05T13:03:13.461Z,20.00
2017-06-05T13:05:41.327Z,20.00
2017-06-05T13:08:09.223Z,20.00
2017-06-05T13:10:37.387Z,20.00
2017-06-05T13:13:05.530Z,19.90
2017-06-05T13:15:33.357Z,20.00
2017-06-05T13:18:01.458Z,20.00
2017-06-05T13:20:29.302Z,20.00
2017-06-05T13:22:57.130Z,20.00
2017-06-05T13:25:25.018Z,20.00
2017-06-05T13:27:52.829Z,20.00
2017-06-05T13:30:21.735Z,20.00
2017-06-05T13:32:49.960Z,20.00
2017-06-05T13:35:17.777Z,20.00
2017-06-05T13:37:45.633Z,20.10
2017-06-05T13:40:13.462Z,20.30
2017-06-05T13:42:41.570Z,20.20
2017-06-05T13:45:09.399Z,20.00
2017-06-05T13:47:37.313Z,20.00
2017-06-05T13:50:05.178Z,19.90
2017-06-05T13:52:33.048Z,19.90
2017-06-05T13:55:00.938Z,19.90
2017-06-05T13:57:28.848Z,19.90
2017-06-05T13:59:57.084Z,19.90
2017-06-05T14:02:24.937Z,19.90
2017-06-05T14:04:52.790Z,19.90
2017-06-05T14:07:20.628Z,19.90
2017-06-05T14:09:48.754Z,19.90
2017-06-05T14:12:16.919Z,19.90
2017-06-05T14:14:44.742Z,20.00
2017-06-05T14:17:12.835Z,20.00
2017-06-05T14:19:41.549Z,20.00
2017-06-05T14:22:09.377Z,20.00
2017-06-05T14:24:37.882Z,20.00
2017-06-05T14:27:05.710Z,20.00
2017-06-05T14:29:33.639Z,20.00
2017-06-05T14:32:01.510Z,20.00
2017-06-05T14:34:29.391Z,20.00
2017-06-05T14:36:57.866Z,20.00
2017-06-05T14:39:25.762Z,20.00
2017-06-05T14:41:53.622Z,20.00
2017-06-05T14:44:21.410Z,20.00
2017-06-05T14:46:49.574Z,20.00
2017-06-05T14:49:17.402Z,20.00
2017-06-05T14:51:45.264Z,20.00
2017-06-05T14:54:13.664Z,20.00
2017-06-05T14:56:41.508Z,20.00
2017-06-05T14:59:09.375Z,20.00
2017-06-05T15:01:37.316Z,20.00
2017-06-05T15:04:05.246Z,20.00
2017-06-05T15:06:34.092Z,20.00
2017-06-05T15:09:01.970Z,20.00
2017-06-05T15:11:29.873Z,20.00
2017-06-05T15:13:57.774Z,20.00
2017-06-05T15:16:25.661Z,20.00
2017-06-05T15:18:53.754Z,20.00
2017-06-05T15:21:21.607Z,20.00
2017-06-05T15:23:49.917Z,20.00
2017-06-05T15:26:17.820Z,20.00
2017-06-05T15:28:45.646Z,20.00
2017-06-05T15:31:13.765Z,20.00
2017-06-05T15:33:41.610Z,20.00
2017-06-05T15:36:09.545Z,20.00
2017-06-05T15:38:37.365Z,20.00
2017-06-05T15:41:05.190Z,20.00
2017-06-05T15:43:33.065Z,20.00
2017-06-05T15:46:01.030Z,20.00
2017-06-05T15:48:28.886Z,20.00
2017-06-05T15:50:56.768Z,20.00
2017-06-05T15:53:24.646Z,20.00
2017-06-05T15:55:52.791Z,20.00
2017-06-05T15:58:20.866Z,20.00
2017-06-05T16:00:49.095Z,20.00
2017-06-05T16:03:16.975Z,20.00
2017-06-05T16:05:44.916Z,20.00
2017-06-05T16:08:12.810Z,20.00
2017-06-05T16:10:40.653Z,20.00
2017-06-05T16:13:08.754Z,20.00
2017-06-05T16:15:36.612Z,20.00
2017-06-05T16:18:04.418Z,20.00
2017-06-05T16:20:32.269Z,20.00
2017-06-05T16:23:00.171Z,20.00
2017-06-05T16:25:28.059Z,20.00
2017-06-05T16:27:55.912Z,20.00
2017-06-05T16:30:23.783Z,20.00
2017-06-05T16:32:51.606Z,20.00
2017-06-05T16:35:19.454Z,20.00
2017-06-05T16:37:47.362Z,20.00
2017-06-05T16:40:15.206Z,20.00
2017-06-05T16:42:43.347Z,20.00
2017-06-05T16:45:11.202Z,20.00
2017-06-05T16:47:39.101Z,20.00
2017-06-05T16:50:06.939Z,20.00
2017-06-05T16:52:34.941Z,20.00
2017-06-05T16:55:03.056Z,20.00
2017-06-05T16:57:30.967Z,20.00
2017-06-05T16:59:58.830Z,20.00
2017-06-05T17:02:26.674Z,20.00
2017-06-05T17:04:54.515Z,20.00
2017-06-05T17:07:22.642Z,20.00
2017-06-05T17:09:50.478Z,20.00
2017-06-05T17:12:18.302Z,20.00
2017-06-05T17:14:46.176Z,20.00
2017-06-05T17:17:14.024Z,20.00
2017-06-05T17:19:41.879Z,20.00
2017-06-05T17:22:09.754Z,20.00
2017-06-05T17:24:37.881Z,20.00
2017-06-05T17:27:05.730Z,20.00
2017-06-05T17:29:33.643Z,20.00
2017-06-05T17:32:01.506Z,20.00
2017-06-05T17:34:29.369Z,20.00
2017-06-05T17:36:57.674Z,20.00
2017-06-05T17:39:25.531Z,20.00
2017-06-05T17:41:53.360Z,20.00
2017-06-05T17:44:21.247Z,20.00
2017-06-05T17:46:49.119Z,20.00
2017-06-05T17:49:17.242Z,20.00
2017-06-05T17:51:45.174Z,20.00
2017-06-05T17:54:13.016Z,20.00
2017-06-05T17:56:40.889Z,20.00
2017-06-05T17:59:08.848Z,20.00
2017-06-05T18:01:36.726Z,20.00
2017-06-05T18:04:04.566Z,20.00
2017-06-05T18:06:32.422Z,20.00
2017-06-05T18:09:00.307Z,20.00
2017-06-05T18:11:28.159Z,20.00
2017-06-05T18:13:55.994Z,20.00
2017-06-05T18:16:23.833Z,20.00
2017-06-05T18:18:51.941Z,20.00
2017-06-05T18:21:19.979Z,20.00
2017-06-05T18:23:48.509Z,20.00
2017-06-05T18:26:16.585Z,20.00
2017-06-05T18:28:44.490Z,20.00
2017-06-05T18:31:12.656Z,20.00
2017-06-05T18:33:40.640Z,20.00
2017-06-05T18:36:09.502Z,20.00
2017-06-05T18:38:37.617Z,20.00
2017-06-05T18:41:05.619Z,20.00
2017-06-05T18:43:33.859Z,20.00
2017-06-05T18:46:01.769Z,20.00
2017-06-05T18:48:29.768Z,20.00
2017-06-05T18:50:57.746Z,20.00
2017-06-05T18:53:26.562Z,20.00
2017-06-05T18:55:54.633Z,19.90
2017-06-05T18:58:23.236Z,20.00
2017-06-05T19:00:52.271Z,19.90
2017-06-05T19:03:21.086Z,20.00
2017-06-05T19:05:49.015Z,20.00
2017-06-05T19:08:16.987Z,20.00
2017-06-05T19:10:44.886Z,20.00
2017-06-05T19:13:13.031Z,19.90
2017-06-05T19:15:40.944Z,20.00
2017-06-05T19:18:24.685Z,19.90
2017-06-05T19:20:52.551Z,19.90
2017-06-05T19:23:20.413Z,19.90
2017-06-05T19:25:48.785Z,20.00
2017-06-05T19:28:17.181Z,19.90
2017-06-05T19:30:45.450Z,19.90
2017-06-05T19:33:13.636Z,19.90
2017-06-05T19:35:42.066Z,19.90
2017-06-05T19:38:11.771Z,19.90
2017-06-05T19:40:39.885Z,19.90
2017-06-05T19:43:08.179Z,19.90
2017-06-05T19:45:36.054Z,19.90
2017-06-05T19:48:04.006Z,19.90
2017-06-05T19:50:31.942Z,19.90
2017-06-05T19:52:59.826Z,19.90
2017-06-05T19:55:28.206Z,19.90
2017-06-05T19:57:56.092Z,19.90
2017-06-05T20:00:23.966Z,19.90
2017-06-05T20:02:51.931Z,19.90
2017-06-05T20:05:19.797Z,19.90
2017-06-05T20:07:47.727Z,19.90
2017-06-05T20:10:15.599Z,19.90
2017-06-05T20:12:43.417Z,19.90
2017-06-05T20:15:11.377Z,19.90
2017-06-05T20:17:39.584Z,19.90
2017-06-05T20:20:07.447Z,19.90
2017-06-05T20:22:35.329Z,19.90
2017-06-05T20:25:03.179Z,19.90
2017-06-05T20:27:31.003Z,19.90
2017-06-05T20:29:59.373Z,19.90
2017-06-05T20:32:27.926Z,19.90
2017-06-05T20:34:55.741Z,19.90
2017-06-05T20:37:23.594Z,19.90
2017-06-05T20:39:51.793Z,19.90
2017-06-05T20:42:19.602Z,19.90
2017-06-05T20:44:47.408Z,19.90
2017-06-05T20:47:15.253Z,19.90
2017-06-05T20:49:43.073Z,19.90
2017-06-05T20:52:11.644Z,19.90
2017-06-05T20:54:39.753Z,19.90
2017-06-05T20:57:07.572Z,19.90
2017-06-05T20:59:35.473Z,19.90
2017-06-05T21:02:03.372Z,19.90
2017-06-05T21:04:31.272Z,19.90
2017-06-05T21:06:59.081Z,19.90
2017-06-05T21:09:26.943Z,19.90
2017-06-05T21:11:54.806Z,19.90
2017-06-05T21:14:22.674Z,19.90
2017-06-05T21:16:50.538Z,19.90
2017-06-05T21:19:18.972Z,19.90
2017-06-05T21:21:47.265Z,19.90
2017-06-05T21:24:15.591Z,19.90
2017-06-05T21:26:44.434Z,19.90
2017-06-05T21:29:12.673Z,19.90
2017-06-05T21:31:40.753Z,19.90
2017-06-05T21:34:09.023Z,19.90
2017-06-05T21:36:36.893Z,19.90
2017-06-05T21:39:05.134Z,19.90
2017-06-05T21:41:34.328Z,19.90
2017-06-05T21:44:02.736Z,19.90
2017-06-05T21:46:30.857Z,19.90
2017-06-05T21:48:59.129Z,19.90
2017-06-05T21:51:27.358Z,19.90
2017-06-05T21:53:55.898Z,19.90
2017-06-05T21:56:23.706Z,19.90
2017-06-05T21:58:51.521Z,19.90
2017-06-05T22:01:19.722Z,19.90
2017-06-05T22:03:47.958Z,19.90
2017-06-05T22:06:16.397Z,19.90
2017-06-05T22:08:44.957Z,19.90
2017-06-05T22:11:13.370Z,19.90
2017-06-05T22:13:41.633Z,19.90
2017-06-05T22:16:09.942Z,19.90
2017-06-05T22:18:37.743Z,19.90
2017-06-05T22:21:05.893Z,19.90
2017-06-05T22:23:34.489Z,19.90
2017-06-05T22:26:02.635Z,19.90
2017-06-05T22:28:30.692Z,19.90
2017-06-05T22:30:58.626Z,19.90
2017-06-05T22:33:27.647Z,19.90
2017-06-05T22:35:56.334Z,19.90
2017-06-05T22:38:24.454Z,19.90
2017-06-05T22:40:52.492Z,19.90
2017-06-05T22:43:20.757Z,19.90
2017-06-05T22:45:48.818Z,19.90
2017-06-05T22:48:17.304Z,19.90
2017-06-05T22:50:45.448Z,19.80
2017-06-05T22:53:13.712Z,19.90
2017-06-05T22:55:42.134Z,19.90
2017-06-05T22:58:10.253Z,19.90
2017-06-05T23:00:38.555Z,19.90
2017-06-05T23:03:09.929Z,19.90
2017-06-05T23:05:38.686Z,19.90
2017-06-05T23:08:07.474Z,19.80
2017-06-05T23:10:35.730Z,19.80
2017-06-05T23:13:03.990Z,19.90
2017-06-05T23:15:32.229Z,19.90
2017-06-05T23:18:00.962Z,19.90
2017-06-05T23:20:29.234Z,19.90
2017-06-05T23:22:57.718Z,19.80
2017-06-05T23:25:26.210Z,19.80
2017-06-05T23:27:54.429Z,19.90
2017-06-05T23:30:23.197Z,19.80
2017-06-05T23:32:52.013Z,19.80
2017-06-05T23:35:20.181Z,19.80
2017-06-05T23:37:49.254Z,19.80
2017-06-05T23:40:17.101Z,19.80
2017-06-05T23:42:44.953Z,19.80
2017-06-05T23:45:12.788Z,19.80
2017-06-05T23:47:40.878Z,19.80
2017-06-05T23:50:08.741Z,19.80
2017-06-05T23:52:37.241Z,19.80
2017-06-05T23:55:05.517Z,19.80
2017-06-05T23:57:33.798Z,19.80
